sensor_id;sensor_type;location;lat;lon;timestamp;P1;durP1;ratioP1;P2;durP2;ratioP2
74369;SDS011;62805;44.644;10.942;2023-03-05T00:00:48;23.90;;;11.93;;
74369;SDS011;62805;44.644;10.942;2023-03-05T00:03:13;26.25;;;11.75;;
74369;SDS011;62805;44.644;10.942;2023-03-05T00:05:38;24.10;;;11.40;;
74369;SDS011;62805;44.644;10.942;2023-03-05T00:08:04;23.30;;;11.18;;
74369;SDS011;62805;44.644;10.942;2023-03-05T00:10:29;24.88;;;11.70;;
74369;SDS011;62805;44.644;10.942;2023-03-05T00:12:55;27.48;;;12.38;;
74369;SDS011;62805;44.644;10.942;2023-03-05T00:15:20;23.87;;;11.83;;
74369;SDS011;62805;44.644;10.942;2023-03-05T00:17:45;26.13;;;12.07;;
74369;SDS011;62805;44.644;10.942;2023-03-05T00:20:11;22.80;;;11.90;;
74369;SDS011;62805;44.644;10.942;2023-03-05T00:22:36;26.98;;;12.52;;
74369;SDS011;62805;44.644;10.942;2023-03-05T00:25:02;24.83;;;11.90;;
74369;SDS011;62805;44.644;10.942;2023-03-05T00:27:28;23.23;;;10.80;;
74369;SDS011;62805;44.644;10.942;2023-03-05T00:29:53;23.48;;;10.18;;
74369;SDS011;62805;44.644;10.942;2023-03-05T00:32:19;20.30;;;9.43;;
74369;SDS011;62805;44.644;10.942;2023-03-05T00:34:44;16.40;;;8.37;;
74369;SDS011;62805;44.644;10.942;2023-03-05T00:37:09;17.42;;;8.45;;
74369;SDS011;62805;44.644;10.942;2023-03-05T00:39:35;14.77;;;7.33;;
74369;SDS011;62805;44.644;10.942;2023-03-05T00:42:00;25.08;;;9.85;;
74369;SDS011;62805;44.644;10.942;2023-03-05T00:44:25;21.87;;;9.47;;
74369;SDS011;62805;44.644;10.942;2023-03-05T00:46:51;17.85;;;8.82;;
74369;SDS011;62805;44.644;10.942;2023-03-05T00:49:16;18.40;;;9.30;;
74369;SDS011;62805;44.644;10.942;2023-03-05T00:51:42;23.55;;;8.55;;
74369;SDS011;62805;44.644;10.942;2023-03-05T00:54:07;18.93;;;9.40;;
74369;SDS011;62805;44.644;10.942;2023-03-05T00:56:32;17.05;;;8.95;;
74369;SDS011;62805;44.644;10.942;2023-03-05T00:58:58;19.55;;;8.55;;
74369;SDS011;62805;44.644;10.942;2023-03-05T01:01:23;19.67;;;9.00;;
74369;SDS011;62805;44.644;10.942;2023-03-05T01:03:49;20.73;;;9.82;;
74369;SDS011;62805;44.644;10.942;2023-03-05T01:06:15;22.98;;;9.40;;
74369;SDS011;62805;44.644;10.942;2023-03-05T01:08:41;18.42;;;9.35;;
74369;SDS011;62805;44.644;10.942;2023-03-05T01:11:08;19.65;;;8.95;;
74369;SDS011;62805;44.644;10.942;2023-03-05T01:13:34;22.58;;;9.25;;
74369;SDS011;62805;44.644;10.942;2023-03-05T01:16:00;17.48;;;9.32;;
74369;SDS011;62805;44.644;10.942;2023-03-05T01:18:26;20.67;;;9.38;;
74369;SDS011;62805;44.644;10.942;2023-03-05T01:20:51;22.65;;;9.60;;
74369;SDS011;62805;44.644;10.942;2023-03-05T01:23:16;17.50;;;9.23;;
74369;SDS011;62805;44.644;10.942;2023-03-05T01:25:42;19.02;;;9.43;;
74369;SDS011;62805;44.644;10.942;2023-03-05T01:28:07;17.05;;;7.68;;
74369;SDS011;62805;44.644;10.942;2023-03-05T01:30:33;18.40;;;8.43;;
74369;SDS011;62805;44.644;10.942;2023-03-05T01:32:59;20.63;;;9.35;;
74369;SDS011;62805;44.644;10.942;2023-03-05T01:35:24;16.85;;;8.35;;
74369;SDS011;62805;44.644;10.942;2023-03-05T01:37:50;18.48;;;8.63;;
74369;SDS011;62805;44.644;10.942;2023-03-05T01:40:19;16.75;;;8.05;;
74369;SDS011;62805;44.644;10.942;2023-03-05T01:42:46;17.35;;;8.48;;
74369;SDS011;62805;44.644;10.942;2023-03-05T01:45:13;18.83;;;9.02;;
74369;SDS011;62805;44.644;10.942;2023-03-05T01:47:41;18.38;;;8.48;;
74369;SDS011;62805;44.644;10.942;2023-03-05T01:50:09;19.13;;;8.75;;
74369;SDS011;62805;44.644;10.942;2023-03-05T01:52:38;14.68;;;8.43;;
74369;SDS011;62805;44.644;10.942;2023-03-05T01:55:09;16.73;;;8.57;;
74369;SDS011;62805;44.644;10.942;2023-03-05T01:57:42;18.42;;;8.82;;
74369;SDS011;62805;44.644;10.942;2023-03-05T02:00:11;18.73;;;8.18;;
74369;SDS011;62805;44.644;10.942;2023-03-05T02:02:38;24.10;;;8.77;;
74369;SDS011;62805;44.644;10.942;2023-03-05T02:05:05;15.43;;;7.50;;
74369;SDS011;62805;44.644;10.942;2023-03-05T02:07:33;23.48;;;8.18;;
74369;SDS011;62805;44.644;10.942;2023-03-05T02:10:01;23.63;;;9.13;;
74369;SDS011;62805;44.644;10.942;2023-03-05T02:12:47;17.75;;;8.15;;
74369;SDS011;62805;44.644;10.942;2023-03-05T02:15:13;17.95;;;7.88;;
74369;SDS011;62805;44.644;10.942;2023-03-05T02:17:39;18.67;;;8.68;;
74369;SDS011;62805;44.644;10.942;2023-03-05T02:20:09;18.83;;;8.02;;
74369;SDS011;62805;44.644;10.942;2023-03-05T02:22:45;16.40;;;7.45;;
74369;SDS011;62805;44.644;10.942;2023-03-05T02:25:13;16.48;;;7.20;;
74369;SDS011;62805;44.644;10.942;2023-03-05T02:27:48;22.92;;;8.25;;
74369;SDS011;62805;44.644;10.942;2023-03-05T02:30:26;17.55;;;7.55;;
74369;SDS011;62805;44.644;10.942;2023-03-05T02:32:52;14.02;;;7.15;;
74369;SDS011;62805;44.644;10.942;2023-03-05T02:35:18;13.90;;;6.47;;
74369;SDS011;62805;44.644;10.942;2023-03-05T02:37:43;13.48;;;6.38;;
74369;SDS011;62805;44.644;10.942;2023-03-05T02:40:09;14.35;;;6.13;;
74369;SDS011;62805;44.644;10.942;2023-03-05T02:42:36;15.25;;;6.57;;
74369;SDS011;62805;44.644;10.942;2023-03-05T02:45:02;13.52;;;6.55;;
74369;SDS011;62805;44.644;10.942;2023-03-05T02:47:28;13.02;;;5.65;;
74369;SDS011;62805;44.644;10.942;2023-03-05T02:49:53;12.15;;;6.00;;
74369;SDS011;62805;44.644;10.942;2023-03-05T02:52:19;16.08;;;6.20;;
74369;SDS011;62805;44.644;10.942;2023-03-05T02:54:47;12.48;;;5.68;;
74369;SDS011;62805;44.644;10.942;2023-03-05T02:57:12;14.38;;;5.93;;
74369;SDS011;62805;44.644;10.942;2023-03-05T02:59:38;18.40;;;6.50;;
74369;SDS011;62805;44.644;10.942;2023-03-05T03:02:03;10.97;;;5.33;;
74369;SDS011;62805;44.644;10.942;2023-03-05T03:04:30;14.13;;;5.70;;
74369;SDS011;62805;44.644;10.942;2023-03-05T03:06:55;16.55;;;6.03;;
74369;SDS011;62805;44.644;10.942;2023-03-05T03:09:21;13.40;;;6.38;;
74369;SDS011;62805;44.644;10.942;2023-03-05T03:11:46;12.23;;;5.63;;
74369;SDS011;62805;44.644;10.942;2023-03-05T03:14:11;10.67;;;5.80;;
74369;SDS011;62805;44.644;10.942;2023-03-05T03:16:39;15.73;;;6.45;;
74369;SDS011;62805;44.644;10.942;2023-03-05T03:19:04;16.23;;;6.47;;
74369;SDS011;62805;44.644;10.942;2023-03-05T03:21:30;14.98;;;6.60;;
74369;SDS011;62805;44.644;10.942;2023-03-05T03:23:55;17.45;;;6.82;;
74369;SDS011;62805;44.644;10.942;2023-03-05T03:26:22;12.88;;;5.35;;
74369;SDS011;62805;44.644;10.942;2023-03-05T03:28:49;14.68;;;6.35;;
74369;SDS011;62805;44.644;10.942;2023-03-05T03:31:14;13.70;;;6.38;;
74369;SDS011;62805;44.644;10.942;2023-03-05T03:33:40;14.45;;;5.97;;
74369;SDS011;62805;44.644;10.942;2023-03-05T03:36:05;14.43;;;6.78;;
74369;SDS011;62805;44.644;10.942;2023-03-05T03:38:32;13.80;;;6.72;;
74369;SDS011;62805;44.644;10.942;2023-03-05T03:40:57;14.27;;;6.18;;
74369;SDS011;62805;44.644;10.942;2023-03-05T03:43:22;11.25;;;5.80;;
74369;SDS011;62805;44.644;10.942;2023-03-05T03:45:48;11.73;;;5.63;;
74369;SDS011;62805;44.644;10.942;2023-03-05T03:48:13;12.65;;;6.38;;
74369;SDS011;62805;44.644;10.942;2023-03-05T03:50:39;12.25;;;6.68;;
74369;SDS011;62805;44.644;10.942;2023-03-05T03:53:06;13.77;;;6.72;;
74369;SDS011;62805;44.644;10.942;2023-03-05T03:55:31;17.80;;;6.80;;
74369;SDS011;62805;44.644;10.942;2023-03-05T03:57:57;17.90;;;7.35;;
74369;SDS011;62805;44.644;10.942;2023-03-05T04:00:22;13.73;;;5.90;;
74369;SDS011;62805;44.644;10.942;2023-03-05T04:02:47;14.70;;;6.60;;
74369;SDS011;62805;44.644;10.942;2023-03-05T04:05:13;14.30;;;6.35;;
74369;SDS011;62805;44.644;10.942;2023-03-05T04:07:38;16.37;;;6.30;;
74369;SDS011;62805;44.644;10.942;2023-03-05T04:10:04;13.82;;;6.28;;
74369;SDS011;62805;44.644;10.942;2023-03-05T04:12:29;13.52;;;6.30;;
74369;SDS011;62805;44.644;10.942;2023-03-05T04:14:55;20.15;;;7.20;;
74369;SDS011;62805;44.644;10.942;2023-03-05T04:17:20;15.43;;;6.77;;
74369;SDS011;62805;44.644;10.942;2023-03-05T04:19:45;16.30;;;7.07;;
74369;SDS011;62805;44.644;10.942;2023-03-05T04:22:12;13.50;;;6.15;;
74369;SDS011;62805;44.644;10.942;2023-03-05T04:24:41;14.90;;;5.97;;
74369;SDS011;62805;44.644;10.942;2023-03-05T04:27:07;14.48;;;5.68;;
74369;SDS011;62805;44.644;10.942;2023-03-05T04:29:33;14.05;;;5.82;;
74369;SDS011;62805;44.644;10.942;2023-03-05T04:31:59;12.85;;;6.03;;
74369;SDS011;62805;44.644;10.942;2023-03-05T04:34:24;14.52;;;6.28;;
74369;SDS011;62805;44.644;10.942;2023-03-05T04:36:49;14.50;;;6.63;;
74369;SDS011;62805;44.644;10.942;2023-03-05T04:39:15;11.33;;;5.90;;
74369;SDS011;62805;44.644;10.942;2023-03-05T04:41:40;14.13;;;6.78;;
74369;SDS011;62805;44.644;10.942;2023-03-05T04:44:06;15.43;;;6.10;;
74369;SDS011;62805;44.644;10.942;2023-03-05T04:46:31;12.63;;;5.93;;
74369;SDS011;62805;44.644;10.942;2023-03-05T04:48:56;15.00;;;6.63;;
74369;SDS011;62805;44.644;10.942;2023-03-05T04:51:22;15.15;;;6.00;;
74369;SDS011;62805;44.644;10.942;2023-03-05T04:53:47;13.43;;;5.75;;
74369;SDS011;62805;44.644;10.942;2023-03-05T04:56:13;14.70;;;6.53;;
74369;SDS011;62805;44.644;10.942;2023-03-05T04:58:38;13.50;;;5.82;;
74369;SDS011;62805;44.644;10.942;2023-03-05T05:01:04;15.45;;;6.65;;
74369;SDS011;62805;44.644;10.942;2023-03-05T05:03:30;14.18;;;6.75;;
74369;SDS011;62805;44.644;10.942;2023-03-05T05:05:56;13.50;;;6.32;;
74369;SDS011;62805;44.644;10.942;2023-03-05T05:08:23;11.18;;;5.68;;
74369;SDS011;62805;44.644;10.942;2023-03-05T05:11:05;20.25;;;6.60;;
74369;SDS011;62805;44.644;10.942;2023-03-05T05:13:46;14.23;;;6.25;;
74369;SDS011;62805;44.644;10.942;2023-03-05T05:16:11;17.00;;;7.10;;
74369;SDS011;62805;44.644;10.942;2023-03-05T05:18:37;17.92;;;7.03;;
74369;SDS011;62805;44.644;10.942;2023-03-05T05:21:05;15.43;;;6.80;;
74369;SDS011;62805;44.644;10.942;2023-03-05T05:23:36;18.80;;;7.50;;
74369;SDS011;62805;44.644;10.942;2023-03-05T05:26:03;19.10;;;7.13;;
74369;SDS011;62805;44.644;10.942;2023-03-05T05:28:30;17.63;;;8.02;;
74369;SDS011;62805;44.644;10.942;2023-03-05T05:30:55;17.15;;;7.50;;
74369;SDS011;62805;44.644;10.942;2023-03-05T05:33:21;15.82;;;7.25;;
74369;SDS011;62805;44.644;10.942;2023-03-05T05:35:47;15.63;;;7.00;;
74369;SDS011;62805;44.644;10.942;2023-03-05T05:38:12;15.85;;;7.15;;
74369;SDS011;62805;44.644;10.942;2023-03-05T05:40:38;14.97;;;7.17;;
74369;SDS011;62805;44.644;10.942;2023-03-05T05:43:05;15.88;;;7.70;;
74369;SDS011;62805;44.644;10.942;2023-03-05T05:45:30;17.45;;;8.57;;
74369;SDS011;62805;44.644;10.942;2023-03-05T05:47:56;15.95;;;6.50;;
74369;SDS011;62805;44.644;10.942;2023-03-05T05:50:21;15.60;;;7.65;;
74369;SDS011;62805;44.644;10.942;2023-03-05T05:52:47;15.13;;;7.35;;
74369;SDS011;62805;44.644;10.942;2023-03-05T05:55:16;15.98;;;7.50;;
74369;SDS011;62805;44.644;10.942;2023-03-05T05:57:41;19.73;;;8.07;;
74369;SDS011;62805;44.644;10.942;2023-03-05T06:00:07;18.03;;;8.03;;
74369;SDS011;62805;44.644;10.942;2023-03-05T06:02:36;19.17;;;7.53;;
74369;SDS011;62805;44.644;10.942;2023-03-05T06:05:02;22.75;;;8.77;;
74369;SDS011;62805;44.644;10.942;2023-03-05T06:07:29;18.48;;;8.45;;
74369;SDS011;62805;44.644;10.942;2023-03-05T06:09:55;19.90;;;8.73;;
74369;SDS011;62805;44.644;10.942;2023-03-05T06:12:22;21.08;;;9.18;;
74369;SDS011;62805;44.644;10.942;2023-03-05T06:14:47;18.92;;;8.15;;
74369;SDS011;62805;44.644;10.942;2023-03-05T06:17:13;17.67;;;9.18;;
74369;SDS011;62805;44.644;10.942;2023-03-05T06:19:38;19.80;;;8.55;;
74369;SDS011;62805;44.644;10.942;2023-03-05T06:22:04;18.53;;;8.87;;
74369;SDS011;62805;44.644;10.942;2023-03-05T06:24:29;22.30;;;9.07;;
74369;SDS011;62805;44.644;10.942;2023-03-05T06:26:54;22.50;;;8.97;;
74369;SDS011;62805;44.644;10.942;2023-03-05T06:29:20;15.07;;;8.57;;
74369;SDS011;62805;44.644;10.942;2023-03-05T06:31:45;20.77;;;8.90;;
74369;SDS011;62805;44.644;10.942;2023-03-05T06:34:10;17.50;;;8.47;;
74369;SDS011;62805;44.644;10.942;2023-03-05T06:36:37;23.67;;;9.47;;
74369;SDS011;62805;44.644;10.942;2023-03-05T06:39:03;18.67;;;9.38;;
74369;SDS011;62805;44.644;10.942;2023-03-05T06:41:29;18.00;;;9.02;;
74369;SDS011;62805;44.644;10.942;2023-03-05T06:43:55;18.23;;;8.93;;
74369;SDS011;62805;44.644;10.942;2023-03-05T06:46:31;21.95;;;9.63;;
74369;SDS011;62805;44.644;10.942;2023-03-05T06:48:59;18.10;;;9.50;;
74369;SDS011;62805;44.644;10.942;2023-03-05T06:51:27;20.30;;;9.27;;
74369;SDS011;62805;44.644;10.942;2023-03-05T06:54:01;20.20;;;9.60;;
74369;SDS011;62805;44.644;10.942;2023-03-05T06:56:28;19.95;;;9.68;;
74369;SDS011;62805;44.644;10.942;2023-03-05T06:58:54;15.10;;;7.55;;
74369;SDS011;62805;44.644;10.942;2023-03-05T07:01:19;12.80;;;6.22;;
74369;SDS011;62805;44.644;10.942;2023-03-05T07:03:47;13.23;;;5.53;;
74369;SDS011;62805;44.644;10.942;2023-03-05T07:06:16;9.15;;;4.53;;
74369;SDS011;62805;44.644;10.942;2023-03-05T07:08:42;9.55;;;4.53;;
74369;SDS011;62805;44.644;10.942;2023-03-05T07:11:12;11.40;;;5.07;;
74369;SDS011;62805;44.644;10.942;2023-03-05T07:13:38;10.77;;;4.82;;
74369;SDS011;62805;44.644;10.942;2023-03-05T07:16:05;11.25;;;5.13;;
74369;SDS011;62805;44.644;10.942;2023-03-05T07:18:33;10.25;;;4.30;;
74369;SDS011;62805;44.644;10.942;2023-03-05T07:21:06;9.18;;;4.82;;
74369;SDS011;62805;44.644;10.942;2023-03-05T07:23:32;9.30;;;4.50;;
74369;SDS011;62805;44.644;10.942;2023-03-05T07:26:02;9.20;;;4.35;;
74369;SDS011;62805;44.644;10.942;2023-03-05T07:28:29;7.78;;;3.53;;
74369;SDS011;62805;44.644;10.942;2023-03-05T07:30:56;9.23;;;4.07;;
74369;SDS011;62805;44.644;10.942;2023-03-05T07:33:23;6.18;;;3.10;;
74369;SDS011;62805;44.644;10.942;2023-03-05T07:35:49;8.75;;;3.40;;
74369;SDS011;62805;44.644;10.942;2023-03-05T07:38:14;6.90;;;3.03;;
74369;SDS011;62805;44.644;10.942;2023-03-05T07:40:39;10.77;;;3.77;;
74369;SDS011;62805;44.644;10.942;2023-03-05T07:43:05;8.73;;;3.13;;
74369;SDS011;62805;44.644;10.942;2023-03-05T07:45:30;7.67;;;3.37;;
74369;SDS011;62805;44.644;10.942;2023-03-05T07:47:56;9.45;;;3.90;;
74369;SDS011;62805;44.644;10.942;2023-03-05T07:50:21;9.55;;;3.60;;
74369;SDS011;62805;44.644;10.942;2023-03-05T07:52:47;9.02;;;3.30;;
74369;SDS011;62805;44.644;10.942;2023-03-05T07:55:12;8.23;;;3.80;;
74369;SDS011;62805;44.644;10.942;2023-03-05T07:57:38;8.70;;;3.97;;
74369;SDS011;62805;44.644;10.942;2023-03-05T08:00:04;9.98;;;4.10;;
74369;SDS011;62805;44.644;10.942;2023-03-05T08:02:30;12.00;;;3.67;;
74369;SDS011;62805;44.644;10.942;2023-03-05T08:04:55;10.25;;;4.28;;
74369;SDS011;62805;44.644;10.942;2023-03-05T08:07:21;11.57;;;3.55;;
74369;SDS011;62805;44.644;10.942;2023-03-05T08:09:46;8.63;;;3.50;;
74369;SDS011;62805;44.644;10.942;2023-03-05T08:12:11;10.30;;;4.00;;
74369;SDS011;62805;44.644;10.942;2023-03-05T08:14:37;8.83;;;4.23;;
74369;SDS011;62805;44.644;10.942;2023-03-05T08:17:03;9.35;;;4.00;;
74369;SDS011;62805;44.644;10.942;2023-03-05T08:19:29;10.00;;;3.72;;
74369;SDS011;62805;44.644;10.942;2023-03-05T08:21:54;8.45;;;4.28;;
74369;SDS011;62805;44.644;10.942;2023-03-05T08:24:19;7.80;;;4.03;;
74369;SDS011;62805;44.644;10.942;2023-03-05T08:26:46;8.15;;;4.20;;
74369;SDS011;62805;44.644;10.942;2023-03-05T08:29:11;11.27;;;4.40;;
74369;SDS011;62805;44.644;10.942;2023-03-05T08:31:37;7.60;;;4.50;;
74369;SDS011;62805;44.644;10.942;2023-03-05T08:34:03;9.85;;;4.43;;
74369;SDS011;62805;44.644;10.942;2023-03-05T08:36:29;10.77;;;4.28;;
74369;SDS011;62805;44.644;10.942;2023-03-05T08:38:54;10.25;;;4.38;;
74369;SDS011;62805;44.644;10.942;2023-03-05T08:41:20;8.93;;;4.57;;
74369;SDS011;62805;44.644;10.942;2023-03-05T08:43:45;9.63;;;4.72;;
74369;SDS011;62805;44.644;10.942;2023-03-05T08:46:11;12.02;;;4.38;;
74369;SDS011;62805;44.644;10.942;2023-03-05T08:48:37;8.80;;;4.25;;
74369;SDS011;62805;44.644;10.942;2023-03-05T08:51:08;9.88;;;4.63;;
74369;SDS011;62805;44.644;10.942;2023-03-05T08:53:36;10.48;;;4.35;;
74369;SDS011;62805;44.644;10.942;2023-03-05T08:56:01;11.70;;;4.82;;
74369;SDS011;62805;44.644;10.942;2023-03-05T08:58:27;9.60;;;4.72;;
74369;SDS011;62805;44.644;10.942;2023-03-05T09:00:53;10.23;;;5.20;;
74369;SDS011;62805;44.644;10.942;2023-03-05T09:03:18;7.35;;;3.92;;
74369;SDS011;62805;44.644;10.942;2023-03-05T09:05:44;12.35;;;5.40;;
74369;SDS011;62805;44.644;10.942;2023-03-05T09:08:09;10.63;;;4.65;;
74369;SDS011;62805;44.644;10.942;2023-03-05T09:10:35;10.40;;;4.60;;
74369;SDS011;62805;44.644;10.942;2023-03-05T09:13:00;8.63;;;4.63;;
74369;SDS011;62805;44.644;10.942;2023-03-05T09:15:28;9.02;;;4.80;;
74369;SDS011;62805;44.644;10.942;2023-03-05T09:17:54;10.50;;;5.57;;
74369;SDS011;62805;44.644;10.942;2023-03-05T09:20:19;10.90;;;4.93;;
74369;SDS011;62805;44.644;10.942;2023-03-05T09:22:45;10.02;;;5.32;;
74369;SDS011;62805;44.644;10.942;2023-03-05T09:25:10;12.03;;;5.40;;
74369;SDS011;62805;44.644;10.942;2023-03-05T09:27:36;13.65;;;5.70;;
74369;SDS011;62805;44.644;10.942;2023-03-05T09:30:03;11.13;;;5.13;;
74369;SDS011;62805;44.644;10.942;2023-03-05T09:32:29;9.23;;;5.03;;
74369;SDS011;62805;44.644;10.942;2023-03-05T09:34:54;11.80;;;5.20;;
74369;SDS011;62805;44.644;10.942;2023-03-05T09:37:20;18.55;;;5.28;;
74369;SDS011;62805;44.644;10.942;2023-03-05T09:39:45;9.57;;;5.00;;
74369;SDS011;62805;44.644;10.942;2023-03-05T09:42:22;14.13;;;5.17;;
74369;SDS011;62805;44.644;10.942;2023-03-05T09:45:25;9.70;;;5.28;;
74369;SDS011;62805;44.644;10.942;2023-03-05T09:55:46;11.27;;;5.50;;
74369;SDS011;62805;44.644;10.942;2023-03-05T10:03:41;18.08;;;5.55;;
74369;SDS011;62805;44.644;10.942;2023-03-05T10:06:19;11.80;;;5.10;;
74369;SDS011;62805;44.644;10.942;2023-03-05T10:14:01;10.75;;;5.55;;
74369;SDS011;62805;44.644;10.942;2023-03-05T10:19:05;12.80;;;6.03;;
74369;SDS011;62805;44.644;10.942;2023-03-05T10:30:07;10.18;;;5.20;;
74369;SDS011;62805;44.644;10.942;2023-03-05T10:38:27;11.73;;;5.68;;
74369;SDS011;62805;44.644;10.942;2023-03-05T10:40:55;14.45;;;6.10;;
74369;SDS011;62805;44.644;10.942;2023-03-05T10:45:52;13.25;;;5.75;;
74369;SDS011;62805;44.644;10.942;2023-03-05T10:50:45;13.97;;;6.37;;
74369;SDS011;62805;44.644;10.942;2023-03-05T10:53:19;12.43;;;6.25;;
74369;SDS011;62805;44.644;10.942;2023-03-05T10:55:50;10.43;;;5.72;;
74369;SDS011;62805;44.644;10.942;2023-03-05T10:58:20;15.68;;;6.90;;
74369;SDS011;62805;44.644;10.942;2023-03-05T11:00:59;14.18;;;6.88;;
74369;SDS011;62805;44.644;10.942;2023-03-05T11:03:45;14.38;;;7.07;;
74369;SDS011;62805;44.644;10.942;2023-03-05T11:06:11;17.23;;;6.82;;
74369;SDS011;62805;44.644;10.942;2023-03-05T11:08:37;12.57;;;6.53;;
74369;SDS011;62805;44.644;10.942;2023-03-05T11:11:16;17.48;;;6.95;;
74369;SDS011;62805;44.644;10.942;2023-03-05T11:13:54;13.90;;;6.93;;
74369;SDS011;62805;44.644;10.942;2023-03-05T11:16:24;15.68;;;6.80;;
74369;SDS011;62805;44.644;10.942;2023-03-05T11:21:35;14.75;;;7.43;;
74369;SDS011;62805;44.644;10.942;2023-03-05T11:24:04;19.15;;;7.65;;
74369;SDS011;62805;44.644;10.942;2023-03-05T11:26:32;13.65;;;7.13;;
74369;SDS011;62805;44.644;10.942;2023-03-05T11:28:59;15.98;;;7.45;;
74369;SDS011;62805;44.644;10.942;2023-03-05T11:33:56;12.27;;;6.57;;
74369;SDS011;62805;44.644;10.942;2023-03-05T11:36:30;17.10;;;8.02;;
74369;SDS011;62805;44.644;10.942;2023-03-05T11:41:31;14.05;;;6.97;;
74369;SDS011;62805;44.644;10.942;2023-03-05T11:44:00;14.77;;;6.93;;
74369;SDS011;62805;44.644;10.942;2023-03-05T11:46:27;12.35;;;6.57;;
74369;SDS011;62805;44.644;10.942;2023-03-05T11:48:54;15.60;;;6.90;;
74369;SDS011;62805;44.644;10.942;2023-03-05T11:51:31;16.23;;;7.15;;
74369;SDS011;62805;44.644;10.942;2023-03-05T11:54:05;14.65;;;7.07;;
74369;SDS011;62805;44.644;10.942;2023-03-05T11:56:33;16.05;;;7.60;;
74369;SDS011;62805;44.644;10.942;2023-03-05T12:01:31;16.75;;;8.23;;
74369;SDS011;62805;44.644;10.942;2023-03-05T12:03:59;13.60;;;7.05;;
74369;SDS011;62805;44.644;10.942;2023-03-05T12:06:32;14.63;;;7.40;;
74369;SDS011;62805;44.644;10.942;2023-03-05T12:09:02;15.77;;;7.82;;
74369;SDS011;62805;44.644;10.942;2023-03-05T12:11:31;14.50;;;7.78;;
74369;SDS011;62805;44.644;10.942;2023-03-05T12:16:57;14.15;;;7.30;;
74369;SDS011;62805;44.644;10.942;2023-03-05T12:22:21;14.23;;;7.65;;
74369;SDS011;62805;44.644;10.942;2023-03-05T12:24:48;18.65;;;7.10;;
74369;SDS011;62805;44.644;10.942;2023-03-05T12:27:15;13.18;;;6.93;;
74369;SDS011;62805;44.644;10.942;2023-03-05T12:29:55;16.42;;;6.85;;
74369;SDS011;62805;44.644;10.942;2023-03-05T12:47:34;15.13;;;6.88;;
74369;SDS011;62805;44.644;10.942;2023-03-05T12:50:00;13.13;;;6.93;;
74369;SDS011;62805;44.644;10.942;2023-03-05T12:52:27;11.45;;;6.38;;
74369;SDS011;62805;44.644;10.942;2023-03-05T12:57:51;11.20;;;5.50;;
74369;SDS011;62805;44.644;10.942;2023-03-05T13:00:26;13.68;;;6.82;;
74369;SDS011;62805;44.644;10.942;2023-03-05T13:02:59;15.40;;;6.20;;
74369;SDS011;62805;44.644;10.942;2023-03-05T13:05:28;13.77;;;6.43;;
74369;SDS011;62805;44.644;10.942;2023-03-05T13:08:10;14.52;;;6.07;;
74369;SDS011;62805;44.644;10.942;2023-03-05T13:10:40;11.93;;;5.63;;
74369;SDS011;62805;44.644;10.942;2023-03-05T13:13:10;16.27;;;6.28;;
74369;SDS011;62805;44.644;10.942;2023-03-05T13:15:43;11.63;;;5.53;;
74369;SDS011;62805;44.644;10.942;2023-03-05T13:18:11;10.98;;;5.45;;
74369;SDS011;62805;44.644;10.942;2023-03-05T13:20:43;15.68;;;7.25;;
74369;SDS011;62805;44.644;10.942;2023-03-05T13:23:19;17.00;;;6.07;;
74369;SDS011;62805;44.644;10.942;2023-03-05T13:25:59;13.68;;;5.75;;
74369;SDS011;62805;44.644;10.942;2023-03-05T13:28:35;13.77;;;5.78;;
74369;SDS011;62805;44.644;10.942;2023-03-05T13:31:09;12.45;;;5.78;;
74369;SDS011;62805;44.644;10.942;2023-03-05T13:33:37;12.30;;;5.45;;
74369;SDS011;62805;44.644;10.942;2023-03-05T13:36:02;13.85;;;5.60;;
74369;SDS011;62805;44.644;10.942;2023-03-05T13:43:31;12.57;;;6.32;;
74369;SDS011;62805;44.644;10.942;2023-03-05T13:45:57;12.98;;;6.38;;
74369;SDS011;62805;44.644;10.942;2023-03-05T13:48:24;12.48;;;6.45;;
74369;SDS011;62805;44.644;10.942;2023-03-05T13:50:55;12.50;;;5.82;;
74369;SDS011;62805;44.644;10.942;2023-03-05T13:53:22;16.10;;;6.57;;
74369;SDS011;62805;44.644;10.942;2023-03-05T13:56:01;13.70;;;6.25;;
74369;SDS011;62805;44.644;10.942;2023-03-05T13:58:45;12.02;;;5.90;;
74369;SDS011;62805;44.644;10.942;2023-03-05T14:04:01;15.23;;;6.82;;
74369;SDS011;62805;44.644;10.942;2023-03-05T14:06:30;13.77;;;7.45;;
74369;SDS011;62805;44.644;10.942;2023-03-05T14:09:06;15.95;;;9.02;;
74369;SDS011;62805;44.644;10.942;2023-03-05T14:14:13;12.80;;;6.40;;
74369;SDS011;62805;44.644;10.942;2023-03-05T14:16:41;18.67;;;8.63;;
74369;SDS011;62805;44.644;10.942;2023-03-05T14:19:23;12.13;;;6.55;;
74369;SDS011;62805;44.644;10.942;2023-03-05T14:21:55;14.02;;;6.38;;
74369;SDS011;62805;44.644;10.942;2023-03-05T14:24:22;15.00;;;6.82;;
74369;SDS011;62805;44.644;10.942;2023-03-05T14:26:51;13.07;;;7.63;;
74369;SDS011;62805;44.644;10.942;2023-03-05T14:29:21;15.98;;;6.15;;
74369;SDS011;62805;44.644;10.942;2023-03-05T14:31:55;12.07;;;6.15;;
74369;SDS011;62805;44.644;10.942;2023-03-05T14:34:24;10.98;;;6.03;;
74369;SDS011;62805;44.644;10.942;2023-03-05T14:36:53;12.65;;;6.57;;
74369;SDS011;62805;44.644;10.942;2023-03-05T14:39:25;12.43;;;5.93;;
74369;SDS011;62805;44.644;10.942;2023-03-05T14:41:52;11.95;;;5.95;;
74369;SDS011;62805;44.644;10.942;2023-03-05T14:44:17;13.95;;;6.57;;
74369;SDS011;62805;44.644;10.942;2023-03-05T14:46:47;15.15;;;6.57;;
74369;SDS011;62805;44.644;10.942;2023-03-05T14:49:13;11.38;;;5.93;;
74369;SDS011;62805;44.644;10.942;2023-03-05T14:51:39;12.82;;;7.18;;
74369;SDS011;62805;44.644;10.942;2023-03-05T14:54:14;13.50;;;6.57;;
74369;SDS011;62805;44.644;10.942;2023-03-05T14:56:46;13.85;;;6.43;;
74369;SDS011;62805;44.644;10.942;2023-03-05T14:59:13;13.38;;;6.00;;
74369;SDS011;62805;44.644;10.942;2023-03-05T15:01:39;12.70;;;6.38;;
74369;SDS011;62805;44.644;10.942;2023-03-05T15:04:04;13.23;;;5.97;;
74369;SDS011;62805;44.644;10.942;2023-03-05T15:06:30;15.07;;;6.38;;
74369;SDS011;62805;44.644;10.942;2023-03-05T15:08:58;9.63;;;5.60;;
74369;SDS011;62805;44.644;10.942;2023-03-05T15:13:49;11.33;;;5.70;;
74369;SDS011;62805;44.644;10.942;2023-03-05T15:16:15;12.10;;;5.78;;
74369;SDS011;62805;44.644;10.942;2023-03-05T15:18:41;14.13;;;7.47;;
74369;SDS011;62805;44.644;10.942;2023-03-05T15:21:07;17.80;;;7.65;;
74369;SDS011;62805;44.644;10.942;2023-03-05T15:23:32;13.57;;;7.00;;
74369;SDS011;62805;44.644;10.942;2023-03-05T15:26:06;15.88;;;7.47;;
74369;SDS011;62805;44.644;10.942;2023-03-05T15:28:33;13.57;;;7.45;;
74369;SDS011;62805;44.644;10.942;2023-03-05T15:31:02;15.27;;;6.82;;
74369;SDS011;62805;44.644;10.942;2023-03-05T15:33:28;17.55;;;7.47;;
74369;SDS011;62805;44.644;10.942;2023-03-05T15:35:54;13.30;;;6.32;;
74369;SDS011;62805;44.644;10.942;2023-03-05T15:38:20;10.63;;;6.25;;
74369;SDS011;62805;44.644;10.942;2023-03-05T15:40:45;11.82;;;6.35;;
74369;SDS011;62805;44.644;10.942;2023-03-05T15:43:11;11.85;;;6.10;;
74369;SDS011;62805;44.644;10.942;2023-03-05T15:45:37;11.75;;;5.97;;
74369;SDS011;62805;44.644;10.942;2023-03-05T15:48:06;13.43;;;6.18;;
74369;SDS011;62805;44.644;10.942;2023-03-05T15:50:32;12.00;;;6.57;;
74369;SDS011;62805;44.644;10.942;2023-03-05T15:52:58;12.40;;;5.93;;